Time;durP1;ratioP1;P1;durP2;ratioP2;P2;SDS_P1;SDS_P2;PMS_P1;PMS_P2;Temp;Humidity;BMP_temperature;BMP_pressure;BME280_temperature;BME280_humidity;BME280_pressure;Samples;Min_cycle;Max_cycle;Signal;HPM_P1;HPM_P2
2023/02/07 00:00:19;;;;;;;19.40;9.65;;;;;;;-2.17;100.00;103130.38;688313;28;1454;-79
2023/02/07 00:00:39;;;;;;;17.98;9.52;;;;;;;-2.17;100.00;103102.19;684364;28;4417;-80
2023/02/07 00:01:23;;;;;;;19.70;9.90;;;;;;;-2.17;100.00;103115.91;683950;28;1299;-79
2023/02/07 00:01:44;;;;;;;18.27;9.65;;;;;;;-2.19;100.00;103135.38;681437;28;1983;-80
2023/02/07 00:02:05;;;;;;;18.55;9.52;;;;;;;-2.21;100.00;103108.72;684856;28;1430;-80
2023/02/07 00:02:25;;;;;;;17.60;9.25;;;;;;;-2.18;100.00;103098.72;685172;28;1524;-80
2023/02/07 00:02:47;;;;;;;17.87;9.40;;;;;;;-2.20;100.00;103124.97;684454;28;1283;-80
2023/02/07 00:03:11;;;;;;;18.00;9.85;;;;;;;-2.17;100.00;103104.75;685526;28;1256;-80
2023/02/07 00:03:31;;;;;;;17.13;9.48;;;;;;;-2.18;100.00;103128.59;683727;28;1256;-79
2023/02/07 00:03:54;;;;;;;17.20;9.68;;;;;;;-2.21;100.00;103113.84;687223;28;4260;-80
2023/02/07 00:04:14;;;;;;;18.02;9.57;;;;;;;-2.25;100.00;103098.97;685833;28;1344;-79
2023/02/07 00:04:35;;;;;;;18.85;9.85;;;;;;;-2.29;100.00;103096.91;690519;28;1243;-79
2023/02/07 00:04:58;;;;;;;23.00;10.43;;;;;;;-2.31;100.00;103103.53;687951;28;1439;-80
2023/02/07 00:05:19;;;;;;;20.73;10.38;;;;;;;-2.32;100.00;103100.09;689071;28;1200;-79
2023/02/07 00:05:40;;;;;;;17.45;9.73;;;;;;;-2.32;100.00;103127.41;687228;28;2189;-79
2023/02/07 00:06:05;;;;;;;17.90;9.77;;;;;;;-2.32;100.00;103094.09;682493;28;1406;-79
2023/02/07 00:06:33;;;;;;;18.23;9.15;;;;;;;-2.34;100.00;103093.97;683879;28;1475;-80
2023/02/07 00:06:54;;;;;;;18.30;10.07;;;;;;;-2.33;100.00;103095.72;684346;28;4362;-79
2023/02/07 00:07:17;;;;;;;17.85;9.65;;;;;;;-2.33;100.00;103110.22;683326;28;1195;-81
2023/02/07 00:07:38;;;;;;;17.35;9.05;;;;;;;-2.31;100.00;103089.09;691280;28;1553;-80
2023/02/07 00:07:59;;;;;;;17.60;9.75;;;;;;;-2.29;100.00;103110.59;689201;28;1379;-79
2023/02/07 00:08:22;;;;;;;17.60;9.73;;;;;;;-2.27;100.00;103103.97;684656;29;1610;-80
2023/02/07 00:08:43;;;;;;;17.27;10.23;;;;;;;-2.26;100.00;103089.47;688112;28;1688;-81
2023/02/07 00:09:06;;;;;;;20.15;10.02;;;;;;;-2.27;100.00;103100.47;685803;28;1540;-80
2023/02/07 00:09:27;;;;;;;21.65;10.93;;;;;;;-2.29;100.00;103094.34;683486;28;1398;-80
2023/02/07 00:09:47;;;;;;;19.45;9.80;;;;;;;-2.26;100.00;103092.03;685591;28;4356;-81
2023/02/07 00:10:08;;;;;;;21.67;10.00;;;;;;;-2.28;100.00;103104.72;689429;28;1546;-81
2023/02/07 00:10:29;;;;;;;20.83;9.80;;;;;;;-2.29;100.00;103135.34;690306;28;1342;-80
2023/02/07 00:10:50;;;;;;;18.17;9.73;;;;;;;-2.30;100.00;103123.28;690544;28;1227;-80
2023/02/07 00:11:15;;;;;;;18.00;9.90;;;;;;;-2.27;100.00;103110.72;689754;28;1141;-80
2023/02/07 00:11:39;;;;;;;17.35;9.93;;;;;;;-2.25;100.00;103107.53;683997;28;1398;-80
2023/02/07 00:12:00;;;;;;;19.42;10.30;;;;;;;-2.16;100.00;103102.34;682633;29;1271;-81
2023/02/07 00:12:20;;;;;;;21.02;10.65;;;;;;;-2.15;100.00;103091.28;684379;29;1177;-80
2023/02/07 00:12:43;;;;;;;15.82;9.80;;;;;;;-2.20;100.00;103095.16;686066;28;4446;-79
2023/02/07 00:13:04;;;;;;;19.70;10.43;;;;;;;-2.21;100.00;103102.72;691715;28;1624;-80
2023/02/07 00:13:25;;;;;;;18.70;10.13;;;;;;;-2.29;100.00;103125.97;691424;28;1440;-79
2023/02/07 00:13:48;;;;;;;19.63;10.38;;;;;;;-2.28;100.00;103097.03;688888;28;1551;-81
2023/02/07 00:14:11;;;;;;;19.85;10.65;;;;;;;-2.32;100.00;103099.22;688916;28;1241;-80
2023/02/07 00:14:31;;;;;;;19.38;10.73;;;;;;;-2.36;100.00;103121.09;687132;28;1320;-79
2023/02/07 00:14:52;;;;;;;18.07;10.10;;;;;;;-2.34;100.00;103118.66;686224;28;1256;-80
2023/02/07 00:15:13;;;;;;;18.50;9.85;;;;;;;-2.31;100.00;103121.47;685659;28;1368;-79
2023/02/07 00:15:33;;;;;;;17.10;9.70;;;;;;;-2.28;100.00;103107.28;690885;28;1562;-80
2023/02/07 00:15:58;;;;;;;19.08;9.82;;;;;;;-2.25;100.00;103107.53;686927;28;4319;-80
2023/02/07 00:16:21;;;;;;;17.25;9.77;;;;;;;-2.27;100.00;103105.63;685606;28;1281;-80
2023/02/07 00:16:42;;;;;;;16.92;9.70;;;;;;;-2.29;100.00;103117.41;684909;28;1292;-79
2023/02/07 00:17:03;;;;;;;18.85;9.38;;;;;;;-2.18;100.00;103119.22;687306;28;1164;-80
2023/02/07 00:17:23;;;;;;;17.77;9.37;;;;;;;-2.15;100.00;103098.97;690213;28;1301;-80
2023/02/07 00:17:44;;;;;;;18.17;10.18;;;;;;;-2.16;100.00;103107.47;690438;28;1620;-80
2023/02/07 00:18:05;;;;;;;22.48;10.52;;;;;;;-2.15;100.00;103108.34;689939;28;1255;-79
2023/02/07 00:18:25;;;;;;;19.27;9.70;;;;;;;-2.18;100.00;103096.16;687264;28;1298;-81
2023/02/07 00:18:46;;;;;;;18.07;9.70;;;;;;;-2.18;100.00;103126.91;685909;28;4345;-80
2023/02/07 00:19:10;;;;;;;19.35;10.20;;;;;;;-2.22;100.00;103104.34;686057;28;1407;-80
2023/02/07 00:19:30;;;;;;;22.10;10.88;;;;;;;-2.24;100.00;103103.34;685666;28;1310;-80
2023/02/07 00:19:51;;;;;;;20.08;10.68;;;;;;;-2.29;100.00;103132.78;685409;28;1177;-80
2023/02/07 00:20:11;;;;;;;19.87;10.70;;;;;;;-2.27;100.00;103149.16;686984;28;1255;-80
2023/02/07 00:20:32;;;;;;;17.92;10.30;;;;;;;-2.31;100.00;103149.66;689909;28;1205;-79
2023/02/07 00:21:15;;;;;;;17.23;10.50;;;;;;;-2.34;100.00;103110.97;686936;28;1562;-81
2023/02/07 00:21:36;;;;;;;23.60;12.52;;;;;;;-2.37;100.00;103124.41;686509;28;1343;-80
2023/02/07 00:21:56;;;;;;;21.90;11.53;;;;;;;-2.33;100.00;103102.53;684817;28;4427;-80
2023/02/07 00:22:17;;;;;;;18.85;10.73;;;;;;;-2.31;100.00;103106.09;686932;28;1398;-80
2023/02/07 00:22:37;;;;;;;19.50;10.70;;;;;;;-2.34;100.00;103110.97;685875;28;972;-81
2023/02/07 00:22:58;;;;;;;22.00;10.90;;;;;;;-2.32;100.00;103094.09;685790;28;1187;-80
2023/02/07 00:23:18;;;;;;;20.92;11.48;;;;;;;-2.35;100.00;103109.16;682477;28;4212;-80
2023/02/07 00:23:43;;;;;;;19.33;10.73;;;;;;;-2.24;100.00;103134.09;684766;29;1419;-80
2023/02/07 00:24:04;;;;;;;18.90;11.07;;;;;;;-2.25;100.00;103099.84;685892;28;1326;-80
2023/02/07 00:24:24;;;;;;;17.52;10.25;;;;;;;-2.23;100.00;103113.72;687573;28;1169;-80
2023/02/07 00:24:45;;;;;;;18.95;10.23;;;;;;;-2.26;100.00;103097.16;687201;28;4379;-80
2023/02/07 00:25:06;;;;;;;19.83;10.37;;;;;;;-2.28;100.00;103098.72;684114;29;1050;-81
2023/02/07 00:25:26;;;;;;;18.88;10.68;;;;;;;-2.29;100.00;103118.28;687117;28;1281;-79
2023/02/07 00:25:47;;;;;;;21.33;10.75;;;;;;;-2.32;100.00;103124.84;685250;28;1903;-80
2023/02/07 00:26:09;;;;;;;20.90;10.87;;;;;;;-2.30;100.00;103130.97;689485;28;1161;-81
2023/02/07 00:26:29;;;;;;;20.40;11.10;;;;;;;-2.30;100.00;103115.59;692543;28;1242;-81
2023/02/07 00:26:51;;;;;;;19.63;11.07;;;;;;;-2.22;100.00;103104.34;690437;28;1448;-79
2023/02/07 00:27:11;;;;;;;18.23;10.18;;;;;;;-2.25;100.00;103104.09;684514;28;1304;-81
2023/02/07 00:27:32;;;;;;;17.90;10.27;;;;;;;-2.27;100.00;103129.59;688336;28;1394;-81
2023/02/07 00:27:53;;;;;;;18.73;11.05;;;;;;;-2.26;100.00;103098.09;684840;28;4528;-80
2023/02/07 00:28:13;;;;;;;20.85;11.38;;;;;;;-2.22;100.00;103109.47;687714;28;1545;-81
2023/02/07 00:28:35;;;;;;;21.05;11.27;;;;;;;-2.28;100.00;103101.28;688517;28;1283;-80
2023/02/07 00:28:56;;;;;;;23.02;11.68;;;;;;;-2.35;100.00;103091.22;684973;28;1185;-81
2023/02/07 00:29:18;;;;;;;19.38;11.15;;;;;;;-2.38;100.00;103102.16;688559;28;1417;-80
2023/02/07 00:29:39;;;;;;;18.90;11.05;;;;;;;-2.38;100.00;103130.31;688463;28;1313;-80
2023/02/07 00:30:03;;;;;;;20.30;11.25;;;;;;;-2.38;100.00;103089.34;685564;28;1586;-80
2023/02/07 00:30:24;;;;;;;19.95;11.13;;;;;;;-2.41;100.00;103094.16;684653;28;1577;-80
2023/02/07 00:30:45;;;;;;;19.42;11.30;;;;;;;-2.42;100.00;103089.84;684214;28;4314;-79
2023/02/07 00:31:15;;;;;;;17.13;10.65;;;;;;;-2.39;100.00;103102.91;687684;28;1016;-79
2023/02/07 00:31:35;;;;;;;18.50;10.77;;;;;;;-2.36;100.00;103089.47;684869;29;980;-81
2023/02/07 00:32:05;;;;;;;21.77;11.38;;;;;;;-2.33;100.00;103093.16;687206;28;1325;-81
2023/02/07 00:32:33;;;;;;;18.88;10.45;;;;;;;-2.34;100.00;103091.41;688071;28;1282;-81
2023/02/07 00:32:54;;;;;;;17.80;10.90;;;;;;;-2.35;100.00;103083.53;693353;28;1054;-81
2023/02/07 00:33:14;;;;;;;19.50;10.65;;;;;;;-2.32;100.00;103084.72;689340;28;1327;-81
2023/02/07 00:33:48;;;;;;;19.10;10.57;;;;;;;-2.35;100.00;103078.41;688900;28;4291;-81
2023/02/07 00:34:10;;;;;;;19.25;10.13;;;;;;;-2.34;100.00;103093.03;686484;28;1300;-80
2023/02/07 00:34:30;;;;;;;19.38;10.82;;;;;;;-2.38;100.00;103109.81;685072;28;1370;-81
2023/02/07 00:34:51;;;;;;;18.20;10.57;;;;;;;-2.35;100.00;103081.91;687834;28;1351;-81
2023/02/07 00:35:12;;;;;;;19.50;10.85;;;;;;;-2.36;100.00;103099.72;688092;28;1133;-80
2023/02/07 00:35:32;;;;;;;21.23;10.88;;;;;;;-2.36;100.00;103086.91;685158;28;1244;-81
2023/02/07 00:36:03;;;;;;;18.70;10.80;;;;;;;-2.35;100.00;103081.91;685435;28;1243;-81
2023/02/07 00:36:26;;;;;;;21.08;11.00;;;;;;;-2.38;100.00;103081.66;686861;28;1484;-80
2023/02/07 00:36:49;;;;;;;19.38;11.23;;;;;;;-2.35;100.00;103084.47;685924;28;4366;-82
2023/02/07 00:37:10;;;;;;;18.58;10.60;;;;;;;-2.32;100.00;103081.28;683933;28;1104;-81
2023/02/07 00:37:30;;;;;;;19.50;10.67;;;;;;;-2.32;100.00;103081.28;685645;28;1048;-81
2023/02/07 00:37:51;;;;;;;19.42;10.77;;;;;;;-2.35;100.00;103075.84;694095;28;1249;-81
2023/02/07 00:38:11;;;;;;;21.17;11.23;;;;;;;-2.38;100.00;103085.84;691444;28;1326;-81
2023/02/07 00:38:32;;;;;;;26.33;17.13;;;;;;;-2.24;100.00;103085.41;690177;28;1267;-81
2023/02/07 00:38:58;;;;;;;30.90;18.58;;;;;;;-2.21;100.00;103083.09;684871;28;1391;-81
2023/02/07 00:39:21;;;;;;;25.92;14.93;;;;;;;-2.22;100.00;103106.91;685096;28;1493;-80
2023/02/07 00:39:42;;;;;;;24.83;15.02;;;;;;;-2.20;100.00;103084.91;687963;28;4356;-80
2023/02/07 00:40:03;;;;;;;25.55;15.15;;;;;;;-2.21;100.00;103097.59;686335;28;1200;-80
2023/02/07 00:40:23;;;;;;;23.05;12.60;;;;;;;-2.25;100.00;103081.91;690486;28;1321;-81
2023/02/07 00:40:43;;;;;;;23.67;12.73;;;;;;;-2.25;100.00;103081.03;693329;28;1329;-80
2023/02/07 00:41:04;;;;;;;21.50;13.63;;;;;;;-2.25;100.00;103084.47;691337;28;1496;-82
2023/02/07 00:41:27;;;;;;;24.13;13.85;;;;;;;-2.24;100.00;103087.97;685908;28;1524;-81
2023/02/07 00:41:47;;;;;;;23.23;13.07;;;;;;;-2.24;100.00;103090.53;682514;29;5538;-82
2023/02/07 00:42:08;;;;;;;21.15;13.15;;;;;;;-2.27;100.00;103095.34;688554;28;1637;-81
2023/02/07 00:42:28;;;;;;;23.07;12.43;;;;;;;-2.28;100.00;103096.16;686369;28;1804;-81
2023/02/07 00:42:49;;;;;;;23.08;12.60;;;;;;;-2.30;100.00;103103.72;686700;28;4292;-81
2023/02/07 00:43:12;;;;;;;20.63;12.10;;;;;;;-2.28;100.00;103088.47;689264;28;1186;-81
2023/02/07 00:43:33;;;;;;;19.08;12.45;;;;;;;-2.26;100.00;103120.22;691909;28;1437;-81
2023/02/07 00:43:54;;;;;;;19.75;12.52;;;;;;;-2.26;100.00;103102.28;689364;28;1344;-82
2023/02/07 00:44:16;;;;;;;22.67;13.32;;;;;;;-2.33;100.00;103076.91;690382;28;1503;-80
2023/02/07 00:44:37;;;;;;;21.53;13.83;;;;;;;-2.29;100.00;103102.03;688961;28;1231;-82
2023/02/07 00:44:58;;;;;;;25.10;14.48;;;;;;;-2.27;100.00;103103.03;684998;28;1282;-81
2023/02/07 00:45:22;;;;;;;21.70;13.30;;;;;;;-2.25;100.00;103112.66;678660;29;1319;-79
2023/02/07 00:45:43;;;;;;;20.30;12.13;;;;;;;-2.26;100.00;103103.22;679550;29;4342;-80
2023/02/07 00:46:04;;;;;;;22.40;11.95;;;;;;;-2.22;100.00;103081.28;685075;28;1398;-81
2023/02/07 00:46:25;;;;;;;21.95;11.80;;;;;;;-2.19;100.00;103096.94;689662;28;1450;-80
2023/02/07 00:46:48;;;;;;;20.98;12.27;;;;;;;-2.20;100.00;103107.03;691114;28;1242;-81
2023/02/07 00:47:08;;;;;;;20.80;11.52;;;;;;;-2.21;100.00;103083.09;689155;28;1181;-81
2023/02/07 00:47:29;;;;;;;21.40;11.88;;;;;;;-2.25;100.00;103111.78;689435;28;1300;-82
2023/02/07 00:47:49;;;;;;;21.57;11.27;;;;;;;-2.25;100.00;103111.78;688367;28;1325;-82
2023/02/07 00:48:10;;;;;;;19.67;10.97;;;;;;;-2.24;100.00;103083.72;687935;28;1381;-81
2023/02/07 00:48:31;;;;;;;20.23;10.95;;;;;;;-2.21;100.00;103116.41;688275;28;1262;-81
2023/02/07 00:48:52;;;;;;;22.83;11.13;;;;;;;-2.23;100.00;103095.78;682761;28;4305;-81
2023/02/07 00:49:13;;;;;;;20.38;10.77;;;;;;;-2.24;100.00;103098.22;679633;29;1209;-80
2023/02/07 00:49:33;;;;;;;17.63;10.23;;;;;;;-2.26;100.00;103089.47;683506;28;1262;-80
2023/02/07 00:49:54;;;;;;;18.30;9.82;;;;;;;-2.25;100.00;103096.41;684760;28;1232;-81
2023/02/07 00:50:14;;;;;;;18.57;9.70;;;;;;;-2.26;100.00;103107.41;686195;28;1068;-81
2023/02/07 00:50:35;;;;;;;19.38;9.75;;;;;;;-2.28;100.00;103102.16;687905;28;1208;-81
2023/02/07 00:50:56;;;;;;;19.07;10.10;;;;;;;-2.31;100.00;103111.22;684277;28;1576;-82
2023/02/07 00:51:17;;;;;;;19.15;10.02;;;;;;;-2.35;100.00;103101.47;687747;28;1055;-81
2023/02/07 00:51:39;;;;;;;17.75;9.52;;;;;;;-2.36;100.00;103102.28;687105;28;4295;-81
2023/02/07 00:51:59;;;;;;;18.17;10.00;;;;;;;-2.38;100.00;103090.97;687036;28;1303;-80
2023/02/07 00:52:19;;;;;;;17.92;10.23;;;;;;;-2.37;100.00;103100.47;687493;28;1247;-80
2023/02/07 00:52:40;;;;;;;17.47;9.40;;;;;;;-2.37;100.00;103096.22;684974;28;1371;-81
2023/02/07 00:53:02;;;;;;;17.38;9.63;;;;;;;-2.37;100.00;103095.34;689723;28;1346;-81
2023/02/07 00:53:24;;;;;;;16.48;9.57;;;;;;;-2.36;100.00;103092.03;688436;28;1232;-81
2023/02/07 00:53:46;;;;;;;19.10;10.05;;;;;;;-2.36;100.00;103092.03;688532;28;1374;-81
2023/02/07 00:54:10;;;;;;;18.92;9.90;;;;;;;-2.37;100.00;103101.34;687760;28;1320;-82
2023/02/07 00:54:31;;;;;;;18.95;10.10;;;;;;;-2.38;100.00;103093.53;684749;28;1122;-82
2023/02/07 00:54:53;;;;;;;23.20;11.13;;;;;;;-2.38;100.00;103098.66;690742;28;4300;-81
2023/02/07 00:55:13;;;;;;;21.00;10.98;;;;;;;-2.40;100.00;103101.09;688467;28;1207;-81
2023/02/07 00:55:34;;;;;;;21.70;10.68;;;;;;;-2.40;100.00;103098.53;685355;28;1164;-81
2023/02/07 00:55:54;;;;;;;18.87;10.60;;;;;;;-2.37;100.00;103090.22;688820;28;1420;-81
2023/02/07 00:56:14;;;;;;;19.02;10.57;;;;;;;-2.35;100.00;103093.78;684630;28;1166;-81
2023/02/07 00:56:45;;;;;;;;;;;;;;;;;;;;;
2023/02/07 00:57:06;;;;;;;18.80;10.23;;;;;;;-2.33;100.00;103094.84;690444;28;1387;-81
2023/02/07 00:57:27;;;;;;;18.07;9.90;;;;;;;-2.32;100.00;103096.66;687326;28;1253;-82
2023/02/07 00:57:50;;;;;;;19.73;10.48;;;;;;;-2.30;100.00;103113.03;686381;28;4310;-81
2023/02/07 00:58:11;;;;;;;18.77;10.47;;;;;;;-2.26;100.00;103092.03;681423;29;1268;-81
2023/02/07 00:58:32;;;;;;;18.00;10.23;;;;;;;-2.25;100.00;103109.22;681923;29;1284;-81
2023/02/07 00:58:53;;;;;;;19.65;10.18;;;;;;;-2.29;100.00;103091.78;691010;28;1489;-80
2023/02/07 00:59:14;;;;;;;19.75;10.25;;;;;;;-2.31;100.00;103112.16;689207;28;1419;-81
2023/02/07 00:59:34;;;;;;;20.57;10.40;;;;;;;-2.33;100.00;103123.03;690780;28;980;-81
2023/02/07 00:59:58;;;;;;;18.95;10.68;;;;;;;-2.34;100.00;103122.16;690249;28;967;-81
2023/02/07 01:00:19;;;;;;;19.77;10.82;;;;;;;-2.33;100.00;103129.03;690741;28;798;-80
2023/02/07 01:00:40;;;;;;;20.73;11.05;;;;;;;-2.32;100.00;103099.22;681877;28;4325;-82
2023/02/07 01:01:01;;;;;;;20.05;11.25;;;;;;;-2.30;100.00;103098.59;688255;28;1318;-81
2023/02/07 01:01:23;;;;;;;21.42;11.52;;;;;;;-2.29;100.00;103105.47;684859;28;1267;-81
2023/02/07 01:01:44;;;;;;;22.98;11.75;;;;;;;-2.31;100.00;103096.78;690222;28;1362;-81
2023/02/07 01:02:04;;;;;;;22.95;11.80;;;;;;;-2.30;100.00;103120.72;689170;28;1322;-81
2023/02/07 01:02:25;;;;;;;22.27;11.50;;;;;;;-2.29;100.00;103125.09;687532;28;1549;-82
2023/02/07 01:02:45;;;;;;;21.23;11.45;;;;;;;-2.29;100.00;103114.84;687208;28;1417;-81
2023/02/07 01:03:09;;;;;;;18.13;10.55;;;;;;;-2.31;100.00;103100.97;680991;29;1196;-82
2023/02/07 01:03:30;;;;;;;19.27;11.02;;;;;;;-2.32;100.00;103094.09;688679;28;1280;-82
2023/02/07 01:03:51;;;;;;;22.90;11.23;;;;;;;-2.33;100.00;103094.84;684807;28;4316;-82
2023/02/07 01:04:11;;;;;;;24.08;11.15;;;;;;;-2.32;100.00;103089.84;687050;28;1202;-81
2023/02/07 01:04:32;;;;;;;24.20;11.70;;;;;;;-2.26;100.00;103104.84;689204;28;1460;-80
2023/02/07 01:04:53;;;;;;;20.50;11.02;;;;;;;-2.26;100.00;103113.47;682646;29;1387;-81
2023/02/07 01:05:13;;;;;;;21.17;11.30;;;;;;;-2.27;100.00;103123.53;684260;28;1254;-81
2023/02/07 01:05:34;;;;;;;21.20;11.23;;;;;;;-2.25;100.00;103106.66;689828;28;1911;-82
2023/02/07 01:05:58;;;;;;;23.00;11.85;;;;;;;-2.25;100.00;103122.03;686753;28;1247;-82
2023/02/07 01:06:20;;;;;;;28.00;13.75;;;;;;;-2.23;100.00;103094.84;684027;28;1488;-81
2023/02/07 01:06:43;;;;;;;25.98;13.38;;;;;;;-2.20;100.00;103095.16;682057;28;4320;-81
2023/02/07 01:07:08;;;;;;;24.83;12.55;;;;;;;-2.26;100.00;103109.97;684057;29;1260;-81
2023/02/07 01:07:31;;;;;;;26.13;12.80;;;;;;;-2.23;100.00;103090.66;687065;28;1333;-81
2023/02/07 01:07:54;;;;;;;24.75;12.73;;;;;;;-2.28;100.00;103099.59;684922;28;1280;-81
2023/02/07 01:08:15;;;;;;;21.23;11.52;;;;;;;-2.33;100.00;103092.28;684425;28;1576;-81
2023/02/07 01:08:39;;;;;;;22.50;11.30;;;;;;;-2.36;100.00;103100.59;683469;29;1228;-81
2023/02/07 01:09:03;;;;;;;21.60;11.50;;;;;;;-2.35;100.00;103088.66;686758;28;1379;-82
2023/02/07 01:09:31;;;;;;;21.55;11.40;;;;;;;-2.32;100.00;103114.59;684342;28;1418;-81
2023/02/07 01:09:56;;;;;;;22.15;11.55;;;;;;;-2.36;100.00;103089.47;681555;28;4306;-81
2023/02/07 01:10:19;;;;;;;20.42;10.93;;;;;;;-2.35;100.00;103124.53;683814;29;1319;-81
2023/02/07 01:10:42;;;;;;;19.15;10.52;;;;;;;-2.27;100.00;103083.47;682425;28;1295;-82
2023/02/07 01:11:07;;;;;;;19.70;10.73;;;;;;;-2.15;100.00;103093.84;687895;28;1422;-81
2023/02/07 01:11:28;;;;;;;19.33;10.75;;;;;;;-2.13;100.00;103092.34;689363;28;849;-82
2023/02/07 01:11:49;;;;;;;19.92;10.52;;;;;;;-2.17;100.00;103090.28;686505;28;1084;-81
2023/02/07 01:12:10;;;;;;;22.42;11.20;;;;;;;-2.17;100.00;103085.16;685757;28;1355;-83
2023/02/07 01:12:30;;;;;;;18.37;10.50;;;;;;;-2.15;100.00;103086.16;691876;28;1297;-81
2023/02/07 01:12:52;;;;;;;17.95;10.55;;;;;;;-2.15;100.00;103104.13;687875;28;4373;-82
2023/02/07 01:13:14;;;;;;;19.50;10.82;;;;;;;-2.16;100.00;103089.53;684061;28;1576;-81
2023/02/07 01:13:37;;;;;;;18.95;10.05;;;;;;;-2.16;100.00;103107.47;687571;28;1247;-81
2023/02/07 01:13:59;;;;;;;19.05;10.50;;;;;;;-2.15;100.00;103096.41;681549;29;1507;-81
2023/02/07 01:14:20;;;;;;;19.98;10.48;;;;;;;-2.20;100.00;103091.66;683873;28;1355;-81
2023/02/07 01:14:40;;;;;;;19.52;10.13;;;;;;;-2.20;100.00;103090.03;686240;28;1482;-82
2023/02/07 01:15:02;;;;;;;19.92;10.60;;;;;;;-2.17;100.00;103090.28;688314;28;1294;-81
2023/02/07 01:15:22;;;;;;;20.98;10.95;;;;;;;-2.10;100.00;103096.84;684068;28;1430;-81
2023/02/07 01:15:45;;;;;;;18.45;10.48;;;;;;;-2.15;100.00;103098.97;684511;28;4333;-81
2023/02/07 01:16:09;;;;;;;17.90;10.20;;;;;;;-2.11;100.00;103093.34;681356;29;971;-81
2023/02/07 01:16:34;;;;;;;19.08;9.93;;;;;;;-2.13;100.00;103120.53;681172;29;1122;-81
2023/02/07 01:16:55;;;;;;;18.33;9.95;;;;;;;-2.07;100.00;103110.78;685477;28;1286;-80
2023/02/07 01:17:15;;;;;;;18.85;9.95;;;;;;;-2.06;100.00;103092.09;687770;28;777;-81
2023/02/07 01:17:36;;;;;;;18.73;10.30;;;;;;;-2.04;100.00;103097.34;690922;28;1286;-81
2023/02/07 01:17:57;;;;;;;19.75;10.43;;;;;;;-2.07;100.00;103091.97;688794;28;1303;-81
2023/02/07 01:18:17;;;;;;;19.75;10.60;;;;;;;-2.12;100.00;103119.78;688992;28;1196;-80
2023/02/07 01:18:38;;;;;;;19.40;10.20;;;;;;;-2.17;100.00;103092.84;684373;28;4410;-81
2023/02/07 01:19:02;;;;;;;17.98;9.82;;;;;;;-2.17;100.00;103120.13;684585;28;1271;-81
2023/02/07 01:19:23;;;;;;;18.27;9.80;;;;;;;-2.23;100.00;103116.28;688400;28;3807;-81
2023/02/07 01:19:44;;;;;;;17.20;9.77;;;;;;;-2.25;100.00;103091.28;688594;28;1129;-81
2023/02/07 01:20:05;;;;;;;20.23;10.13;;;;;;;-2.26;100.00;103098.09;684594;28;1398;-81
2023/02/07 01:20:28;;;;;;;19.44;10.38;;;;;;;-2.29;100.00;103099.47;684990;28;1397;-81
2023/02/07 01:20:48;;;;;;;19.10;9.98;;;;;;;-2.33;100.00;103098.28;686547;28;1309;-82
2023/02/07 01:21:16;;;;;;;18.55;9.73;;;;;;;-2.33;100.00;103089.72;684808;28;1454;-82
2023/02/07 01:21:39;;;;;;;17.85;9.50;;;;;;;-2.32;100.00;103125.72;684438;28;4343;-81
2023/02/07 01:22:04;;;;;;;17.27;9.77;;;;;;;-2.30;100.00;103102.78;691233;28;1251;-80
2023/02/07 01:22:26;;;;;;;17.75;9.93;;;;;;;-2.22;100.00;103096.66;690505;28;1663;-81
2023/02/07 01:22:47;;;;;;;18.58;9.80;;;;;;;-2.24;100.00;103126.41;692292;28;1372;-81
2023/02/07 01:23:31;;;;;;;18.57;9.53;;;;;;;-2.16;100.00;103121.91;691403;28;1271;-80
2023/02/07 01:23:55;;;;;;;16.95;9.10;;;;;;;-2.07;100.00;103089.41;684550;28;1176;-81
2023/02/07 01:24:18;;;;;;;16.05;9.10;;;;;;;-2.03;100.00;103094.03;686979;28;1232;-81
2023/02/07 01:24:41;;;;;;;14.35;9.00;;;;;;;-2.06;100.00;103097.22;686077;28;4289;-82
2023/02/07 01:25:06;;;;;;;16.77;9.43;;;;;;;-2.07;100.00;103100.53;683627;28;1164;-81
2023/02/07 01:25:31;;;;;;;17.38;9.07;;;;;;;-2.02;100.00;103100.03;685327;28;1275;-79
2023/02/07 01:25:51;;;;;;;16.80;9.32;;;;;;;-2.06;100.00;103094.66;685029;28;1248;-81
2023/02/07 01:26:14;;;;;;;17.77;9.57;;;;;;;-2.11;100.00;103095.03;686669;28;1374;-81
2023/02/07 01:26:39;;;;;;;16.92;9.60;;;;;;;-2.16;100.00;103119.34;687896;28;1000;-82
2023/02/07 01:27:04;;;;;;;16.56;9.40;;;;;;;-2.23;100.00;103106.03;686897;28;1363;-81
2023/02/07 01:27:30;;;;;;;16.40;9.60;;;;;;;-2.29;100.00;103104.59;685534;28;1263;-81
2023/02/07 01:27:54;;;;;;;17.92;9.93;;;;;;;-2.26;100.00;103120.22;681378;28;4460;-82
2023/02/07 01:28:17;;;;;;;17.50;9.80;;;;;;;-2.28;100.00;103132.91;685600;28;1180;-82
2023/02/07 01:28:41;;;;;;;17.15;9.63;;;;;;;-2.28;100.00;103126.91;684512;28;1342;-80
2023/02/07 01:29:06;;;;;;;19.20;9.88;;;;;;;-2.28;100.00;103106.41;681972;29;1037;-81
2023/02/07 01:29:27;;;;;;;17.63;9.77;;;;;;;-2.31;100.00;103137.78;683991;28;1211;-82
2023/02/07 01:29:50;;;;;;;17.80;9.48;;;;;;;-2.31;100.00;103134.28;679080;29;1391;-81
2023/02/07 01:30:13;;;;;;;17.90;10.63;;;;;;;-2.31;100.00;103107.03;684990;28;1399;-81
2023/02/07 01:30:38;;;;;;;18.10;10.27;;;;;;;-2.33;100.00;103123.03;684772;28;1275;-81
2023/02/07 01:30:59;;;;;;;17.63;9.93;;;;;;;-2.31;100.00;103147.09;685673;28;6101;-81
2023/02/07 01:31:25;;;;;;;16.77;9.77;;;;;;;-2.35;100.00;103104.03;684921;28;1396;-80
2023/02/07 01:31:45;;;;;;;16.48;9.57;;;;;;;-2.38;100.00;103101.22;688394;28;1585;-81
2023/02/07 01:32:09;;;;;;;19.02;10.50;;;;;;;-2.39;100.00;103102.91;689025;28;1544;-81
2023/02/07 01:32:34;;;;;;;22.15;9.90;;;;;;;-2.44;100.00;103099.03;690223;28;1255;-80
2023/02/07 01:33:01;;;;;;;19.67;9.82;;;;;;;-2.44;100.00;103093.91;688118;28;1169;-82
2023/02/07 01:33:32;;;;;;;19.75;9.85;;;;;;;-2.43;100.00;103116.22;681270;29;1431;-81
2023/02/07 01:33:55;;;;;;;20.83;10.25;;;;;;;-2.34;100.00;103116.09;683184;28;4293;-81
2023/02/07 01:34:18;;;;;;;16.77;10.13;;;;;;;-2.29;100.00;103095.22;684090;28;1180;-80
2023/02/07 01:34:44;;;;;;;18.85;10.00;;;;;;;-2.14;100.00;103095.66;686493;28;1264;-82
2023/02/07 01:35:23;;;;;;;18.33;9.70;;;;;;;-2.14;100.00;103093.09;692360;28;1187;-80
2023/02/07 01:35:49;;;;;;;17.52;10.13;;;;;;;-2.21;100.00;103083.09;689220;28;1394;-81
2023/02/07 01:36:13;;;;;;;19.77;9.95;;;;;;;-2.25;100.00;103087.03;685611;28;1420;-82
2023/02/07 01:36:33;;;;;;;17.92;10.13;;;;;;;-2.27;100.00;103087.66;678879;28;1343;-79
2023/02/07 01:36:56;;;;;;;19.25;10.32;;;;;;;-2.30;100.00;103120.72;679296;28;4294;-80
2023/02/07 01:37:17;;;;;;;19.98;10.60;;;;;;;-2.32;100.00;103112.03;685159;28;1312;-82
2023/02/07 01:37:40;;;;;;;20.00;11.07;;;;;;;-2.31;100.00;103086.53;690094;28;1382;-82
2023/02/07 01:38:03;;;;;;;22.30;11.10;;;;;;;-2.36;100.00;103098.03;685597;28;1377;-80
2023/02/07 01:38:24;;;;;;;20.55;10.80;;;;;;;-2.39;100.00;103108.03;682837;29;1382;-81
2023/02/07 01:38:45;;;;;;;19.67;10.43;;;;;;;-2.40;100.00;103095.97;681638;29;1219;-79
2023/02/07 01:39:10;;;;;;;22.08;10.80;;;;;;;-2.41;100.00;103106.97;680656;29;1372;-80
2023/02/07 01:39:31;;;;;;;23.73;11.35;;;;;;;-2.38;100.00;103109.81;688065;28;1291;-80
2023/02/07 01:39:54;;;;;;;22.83;11.32;;;;;;;-2.30;100.00;103082.28;685103;28;4288;-80
2023/02/07 01:40:22;;;;;;;22.92;11.43;;;;;;;-2.33;100.00;103099.97;693106;28;1314;-79
2023/02/07 01:40:43;;;;;;;23.30;11.73;;;;;;;-2.35;100.00;103112.66;685471;28;1347;-80
2023/02/07 01:41:07;;;;;;;24.17;11.40;;;;;;;-2.40;100.00;103075.47;681602;28;1506;-79
2023/02/07 01:41:28;;;;;;;22.27;11.43;;;;;;;-2.42;100.00;103100.97;679689;29;1672;-80
2023/02/07 01:41:49;;;;;;;21.17;10.73;;;;;;;-2.30;100.00;103077.16;683761;28;5308;-80
2023/02/07 01:42:16;;;;;;;23.03;11.10;;;;;;;-2.27;100.00;103077.44;684531;28;1529;-81
2023/02/07 01:42:45;;;;;;;23.63;12.05;;;;;;;-2.33;100.00;103102.53;685637;28;1539;-79
2023/02/07 01:43:06;;;;;;;21.67;11.10;;;;;;;-2.36;100.00;103097.16;688448;28;4931;-79
2023/02/07 01:43:27;;;;;;;20.70;11.30;;;;;;;-2.37;100.00;103085.97;688671;28;1246;-80
2023/02/07 01:44:20;;;;;;;19.52;11.52;;;;;;;-2.43;100.00;103086.34;686278;28;1227;-80